createdAt,value
2023-05-23T00:01:10.181Z,11.75
2023-05-23T00:03:37.441Z,11.73
2023-05-23T00:06:06.581Z,11.38
2023-05-23T00:08:33.225Z,11.25
2023-05-23T00:10:59.837Z,12.45
2023-05-23T00:13:26.907Z,9.27
2023-05-23T00:15:53.604Z,9.20
2023-05-23T00:18:20.356Z,10.23
2023-05-23T00:20:47.175Z,9.93
2023-05-23T00:23:18.866Z,9.85
2023-05-23T00:25:48.355Z,9.70
2023-05-23T00:28:15.986Z,9.10
2023-05-23T00:30:42.979Z,8.63
2023-05-23T00:33:09.673Z,8.75
2023-05-23T00:35:36.326Z,8.75
2023-05-23T00:38:03.401Z,9.10
2023-05-23T00:40:30.159Z,12.63
2023-05-23T00:42:56.858Z,11.27
2023-05-23T00:45:23.613Z,11.73
2023-05-23T00:47:51.459Z,11.00
2023-05-23T00:50:18.160Z,11.43
2023-05-23T00:52:45.452Z,12.70
2023-05-23T00:55:12.615Z,11.13
2023-05-23T00:57:40.349Z,12.65
2023-05-23T01:00:09.858Z,11.15
2023-05-23T01:02:43.457Z,12.15
2023-05-23T01:05:11.489Z,13.07
2023-05-23T01:07:38.178Z,11.57
2023-05-23T01:10:05.283Z,12.18
2023-05-23T01:12:46.772Z,11.90
2023-05-23T01:15:15.655Z,12.13
2023-05-23T01:17:59.358Z,12.45
2023-05-23T01:20:31.534Z,11.85
2023-05-23T01:26:18.573Z,11.07
2023-05-23T01:28:47.290Z,12.02
2023-05-23T01:31:14.183Z,11.60
2023-05-23T01:33:41.122Z,11.45
2023-05-23T01:36:07.846Z,11.73
2023-05-23T01:38:34.493Z,12.77
2023-05-23T01:41:01.348Z,12.48
2023-05-23T01:43:27.937Z,11.63
2023-05-23T01:45:54.645Z,12.38
2023-05-23T01:48:21.394Z,12.68
2023-05-23T01:50:48.018Z,9.55
2023-05-23T01:53:16.250Z,9.85
2023-05-23T01:55:42.898Z,10.48
2023-05-23T01:58:09.602Z,11.90
2023-05-23T02:00:36.311Z,10.43
2023-05-23T02:03:03.120Z,9.65
2023-05-23T02:05:30.383Z,10.45
2023-05-23T02:07:57.073Z,12.57
2023-05-23T02:10:23.847Z,12.43
2023-05-23T02:12:50.589Z,13.52
2023-05-23T02:15:17.402Z,14.13
2023-05-23T02:17:44.195Z,12.65
2023-05-23T02:20:11.175Z,12.93
2023-05-23T02:22:38.636Z,12.55
2023-05-23T02:25:06.000Z,13.68
2023-05-23T02:27:32.698Z,12.57
2023-05-23T02:29:59.541Z,13.82
2023-05-23T02:32:26.321Z,12.35
2023-05-23T02:34:55.123Z,13.35
2023-05-23T02:37:23.623Z,13.77
2023-05-23T02:39:50.314Z,13.60
2023-05-23T02:42:16.963Z,12.77
2023-05-23T02:44:44.103Z,13.02
2023-05-23T02:47:10.841Z,14.70
2023-05-23T02:49:37.463Z,13.95
2023-05-23T02:52:04.415Z,13.75
2023-05-23T02:54:31.128Z,13.95
2023-05-23T02:56:58.486Z,14.80
2023-05-23T02:59:26.715Z,12.93
2023-05-23T03:01:53.566Z,13.57
2023-05-23T03:04:21.320Z,15.32
2023-05-23T03:06:48.314Z,16.48
2023-05-23T03:09:16.878Z,14.90
2023-05-23T03:11:43.973Z,13.05
2023-05-23T03:14:10.809Z,12.93
2023-05-23T03:16:37.660Z,11.50
2023-05-23T03:19:04.866Z,12.45
2023-05-23T03:21:32.762Z,12.82
2023-05-23T03:23:59.433Z,11.95
2023-05-23T03:26:26.793Z,12.48
2023-05-23T03:28:53.447Z,13.35
2023-05-23T03:31:20.401Z,12.73
2023-05-23T03:33:47.093Z,13.15
2023-05-23T03:36:13.840Z,12.25
2023-05-23T03:38:40.652Z,13.55
2023-05-23T03:41:07.494Z,13.93
2023-05-23T03:43:34.245Z,14.45
2023-05-23T03:46:01.132Z,13.85
2023-05-23T03:48:27.858Z,13.00
2023-05-23T03:50:54.615Z,14.50
2023-05-23T03:53:21.469Z,14.55
2023-05-23T03:55:48.136Z,15.30
2023-05-23T03:58:15.055Z,16.98
2023-05-23T04:00:41.750Z,17.10
2023-05-23T04:03:10.192Z,15.68
2023-05-23T04:05:36.975Z,17.33
2023-05-23T04:08:03.739Z,14.48
2023-05-23T04:10:30.383Z,14.93
2023-05-23T04:12:57.332Z,13.60
2023-05-23T04:15:24.792Z,13.70
2023-05-23T04:17:51.508Z,13.65
2023-05-23T04:20:18.396Z,14.43
2023-05-23T04:22:45.296Z,15.43
2023-05-23T04:25:12.431Z,15.00
2023-05-23T04:27:40.602Z,14.07
2023-05-23T04:30:09.811Z,13.30
2023-05-23T04:32:36.795Z,14.10
2023-05-23T04:35:04.336Z,12.90
2023-05-23T04:37:32.896Z,14.70
2023-05-23T04:40:01.144Z,14.73
2023-05-23T04:42:29.196Z,14.82
2023-05-23T04:44:58.181Z,15.73
2023-05-23T04:47:27.918Z,15.65
2023-05-23T04:49:55.656Z,16.17
2023-05-23T04:52:22.425Z,14.68
2023-05-23T04:54:49.647Z,16.15
2023-05-23T04:57:17.005Z,16.10
2023-05-23T04:59:43.832Z,16.05
2023-05-23T05:02:10.589Z,15.82
2023-05-23T05:04:37.431Z,15.90
2023-05-23T05:07:04.506Z,16.50
2023-05-23T05:09:31.951Z,16.25
2023-05-23T05:11:59.452Z,15.35
2023-05-23T05:14:26.957Z,15.65
2023-05-23T05:16:54.765Z,17.13
2023-05-23T05:19:25.185Z,16.08
2023-05-23T05:21:52.419Z,16.83
2023-05-23T05:24:20.994Z,14.75
2023-05-23T05:26:48.703Z,16.23
2023-05-23T05:29:15.999Z,16.50
2023-05-23T05:31:45.154Z,15.00
2023-05-23T05:34:12.774Z,15.90
2023-05-23T05:36:45.756Z,17.33
2023-05-23T05:39:13.686Z,16.95
2023-05-23T05:41:40.615Z,16.10
2023-05-23T05:44:08.190Z,16.95
2023-05-23T05:46:34.951Z,16.05
2023-05-23T05:49:01.680Z,15.18
2023-05-23T05:51:28.690Z,15.77
2023-05-23T05:53:55.390Z,13.48
2023-05-23T05:56:22.563Z,14.40
2023-05-23T05:58:49.451Z,15.77
2023-05-23T06:01:16.173Z,16.88
2023-05-23T06:03:43.410Z,15.82
2023-05-23T06:06:10.411Z,15.70
2023-05-23T06:08:37.139Z,15.82
2023-05-23T06:11:03.789Z,16.05
2023-05-23T06:13:30.603Z,16.67
2023-05-23T06:15:58.377Z,15.52
2023-05-23T06:18:25.269Z,15.60
2023-05-23T06:20:51.928Z,15.35
2023-05-23T06:23:18.563Z,15.55
2023-05-23T06:25:45.332Z,16.73
2023-05-23T06:28:12.086Z,16.50
2023-05-23T06:30:39.089Z,16.17
2023-05-23T06:33:06.187Z,17.00
2023-05-23T06:35:32.851Z,15.43
2023-05-23T06:37:59.468Z,16.85
2023-05-23T06:40:26.375Z,16.77
2023-05-23T06:42:53.017Z,16.25
2023-05-23T06:45:19.816Z,16.77
2023-05-23T06:47:48.173Z,16.23
2023-05-23T06:50:15.012Z,16.30
2023-05-23T06:52:42.906Z,15.82
2023-05-23T06:55:10.052Z,16.60
2023-05-23T06:57:36.662Z,17.45
2023-05-23T07:00:03.826Z,17.77
2023-05-23T07:02:30.599Z,16.80
2023-05-23T07:04:57.285Z,15.45
2023-05-23T07:07:24.008Z,16.90
2023-05-23T07:09:50.857Z,16.35
2023-05-23T07:12:17.545Z,15.40
2023-05-23T07:14:44.245Z,16.73
2023-05-23T07:17:11.056Z,16.98
2023-05-23T07:19:37.984Z,16.98
2023-05-23T07:22:07.890Z,18.42
2023-05-23T07:24:34.859Z,18.58
2023-05-23T07:27:01.590Z,17.55
2023-05-23T07:29:28.266Z,18.10
2023-05-23T07:31:55.234Z,19.80
2023-05-23T07:34:21.901Z,16.65
2023-05-23T07:36:50.234Z,19.13
2023-05-23T07:39:21.878Z,17.05
2023-05-23T07:41:50.062Z,19.98
2023-05-23T07:44:18.503Z,20.75
2023-05-23T07:46:47.957Z,20.83
2023-05-23T07:49:14.714Z,20.77
2023-05-23T07:51:44.807Z,21.35
2023-05-23T07:54:11.487Z,21.77
2023-05-23T07:56:39.393Z,22.17
2023-05-23T07:59:06.349Z,21.55
2023-05-23T08:01:33.106Z,20.50
2023-05-23T08:03:59.933Z,22.70
2023-05-23T08:06:26.874Z,21.67
2023-05-23T08:08:53.576Z,22.08
2023-05-23T08:11:20.339Z,22.88
2023-05-23T08:13:47.148Z,20.77
2023-05-23T08:16:13.976Z,20.48
2023-05-23T08:18:41.044Z,19.83
2023-05-23T08:21:07.915Z,21.35
2023-05-23T08:23:34.524Z,24.30
2023-05-23T08:26:01.244Z,22.45
2023-05-23T08:28:27.949Z,20.10
2023-05-23T08:30:56.999Z,20.70
2023-05-23T08:33:23.730Z,19.98
2023-05-23T08:35:50.565Z,22.33
2023-05-23T08:38:18.194Z,21.30
2023-05-23T08:40:49.552Z,22.10
2023-05-23T08:43:16.698Z,22.95
2023-05-23T08:45:43.543Z,20.60
2023-05-23T08:48:11.725Z,21.48
2023-05-23T08:50:38.617Z,22.48
2023-05-23T08:53:08.530Z,24.35
2023-05-23T08:55:35.457Z,22.85
2023-05-23T08:58:03.499Z,20.25
2023-05-23T09:00:30.209Z,20.42
2023-05-23T09:02:57.778Z,24.30
2023-05-23T09:05:25.033Z,23.67
2023-05-23T09:07:52.220Z,20.95
2023-05-23T09:10:20.177Z,21.15
2023-05-23T09:12:47.344Z,21.35
2023-05-23T09:15:14.783Z,20.20
2023-05-23T09:17:41.734Z,21.58
2023-05-23T09:20:14.136Z,21.58
2023-05-23T09:22:41.168Z,21.13
2023-05-23T09:25:08.192Z,20.48
2023-05-23T09:27:35.326Z,21.38
2023-05-23T09:30:10.622Z,20.95
2023-05-23T09:32:37.446Z,21.63
2023-05-23T09:35:05.525Z,21.88
2023-05-23T09:37:36.549Z,21.02
2023-05-23T09:40:10.079Z,22.60
2023-05-23T09:42:41.457Z,20.88
2023-05-23T09:45:08.614Z,23.25
2023-05-23T09:47:35.378Z,23.90
2023-05-23T09:50:02.178Z,24.75
2023-05-23T09:52:38.743Z,25.15
2023-05-23T09:55:06.625Z,26.67
2023-05-23T09:57:37.542Z,23.67
2023-05-23T10:00:06.936Z,24.05
2023-05-23T10:02:58.463Z,23.23
2023-05-23T10:05:46.698Z,24.23
2023-05-23T10:08:27.026Z,22.25
2023-05-23T10:11:16.897Z,24.70
2023-05-23T10:13:44.682Z,24.42
2023-05-23T10:16:18.561Z,24.42
2023-05-23T10:18:45.430Z,24.45
2023-05-23T10:21:12.655Z,24.13
2023-05-23T10:23:39.392Z,22.33
2023-05-23T10:26:06.154Z,25.38
2023-05-23T10:28:33.026Z,24.65
2023-05-23T10:31:00.045Z,23.75
2023-05-23T10:35:57.621Z,24.17
2023-05-23T10:38:46.636Z,25.40
2023-05-23T10:41:18.884Z,23.92
2023-05-23T10:44:25.449Z,23.30
2023-05-23T10:46:54.311Z,22.42
2023-05-23T10:49:21.585Z,20.70
2023-05-23T10:51:51.347Z,20.90
2023-05-23T10:54:19.745Z,20.00
2023-05-23T10:56:46.605Z,19.77
2023-05-23T10:59:21.902Z,16.67
2023-05-23T11:01:51.938Z,18.60
2023-05-23T11:04:26.539Z,16.83
2023-05-23T11:06:54.954Z,19.92
2023-05-23T11:09:22.208Z,18.08
2023-05-23T11:20:06.835Z,17.52
2023-05-23T11:22:34.407Z,15.52
2023-05-23T11:25:02.089Z,15.07
2023-05-23T11:27:34.817Z,14.00
2023-05-23T11:30:10.422Z,14.30
2023-05-23T11:32:37.428Z,14.68
2023-05-23T11:35:06.910Z,15.65
2023-05-23T11:37:33.744Z,14.80
2023-05-23T11:40:02.247Z,14.77
2023-05-23T11:42:29.054Z,14.40
2023-05-23T11:44:55.954Z,15.95
2023-05-23T11:47:22.784Z,13.70
2023-05-23T11:49:49.593Z,14.77
2023-05-23T11:52:16.660Z,13.90
2023-05-23T11:54:43.461Z,14.32
2023-05-23T11:57:10.801Z,13.07
2023-05-23T11:59:37.554Z,14.43
2023-05-23T12:02:07.926Z,14.38
2023-05-23T12:04:36.742Z,14.63
2023-05-23T12:07:06.234Z,15.10
2023-05-23T12:09:33.461Z,15.88
2023-05-23T12:12:00.185Z,15.15
2023-05-23T12:14:28.930Z,14.20
2023-05-23T12:16:55.593Z,14.20
2023-05-23T12:19:22.358Z,15.57
2023-05-23T12:21:49.444Z,14.30
2023-05-23T12:24:20.318Z,13.57
2023-05-23T12:26:48.390Z,15.23
2023-05-23T12:29:15.233Z,14.15
2023-05-23T12:31:41.994Z,13.15
2023-05-23T12:34:08.805Z,13.98
2023-05-23T12:36:47.999Z,13.02
2023-05-23T12:39:16.038Z,13.98
2023-05-23T12:41:43.785Z,13.35
2023-05-23T12:44:10.713Z,13.07
2023-05-23T12:46:37.519Z,13.77
2023-05-23T12:49:04.212Z,16.73
2023-05-23T12:51:31.857Z,13.43
2023-05-23T12:53:59.125Z,13.77
2023-05-23T12:56:26.547Z,11.07
2023-05-23T12:58:54.277Z,12.43
2023-05-23T13:01:21.134Z,13.85
2023-05-23T13:03:47.917Z,12.55
2023-05-23T13:06:14.782Z,12.77
2023-05-23T13:08:41.645Z,12.90
2023-05-23T13:11:08.880Z,12.65
2023-05-23T13:13:35.527Z,13.38
2023-05-23T13:16:02.276Z,11.55
2023-05-23T13:18:29.007Z,11.30
2023-05-23T13:20:55.833Z,11.38
2023-05-23T13:23:22.538Z,11.43
2023-05-23T13:25:51.289Z,13.02
2023-05-23T13:28:18.176Z,11.95
2023-05-23T13:30:47.065Z,12.23
2023-05-23T13:33:14.241Z,11.18
2023-05-23T13:35:41.164Z,12.85
2023-05-23T13:38:08.047Z,10.77
2023-05-23T13:40:34.752Z,12.20
2023-05-23T13:43:01.506Z,12.27
2023-05-23T13:45:28.286Z,12.20
2023-05-23T13:47:55.056Z,11.20
2023-05-23T13:50:21.843Z,11.02
2023-05-23T13:52:49.624Z,11.90
2023-05-23T13:55:17.388Z,11.35
2023-05-23T13:57:44.783Z,12.32
2023-05-23T14:00:12.330Z,10.75
2023-05-23T14:02:39.074Z,11.40
2023-05-23T14:05:07.243Z,10.57
2023-05-23T14:07:33.929Z,11.32
2023-05-23T14:10:00.890Z,11.48
2023-05-23T14:12:27.672Z,11.57
2023-05-23T14:14:54.386Z,11.07
2023-05-23T14:17:21.110Z,11.50
2023-05-23T14:19:48.075Z,10.88
2023-05-23T14:22:14.918Z,10.60
2023-05-23T14:24:42.502Z,11.02
2023-05-23T14:27:11.067Z,11.13
2023-05-23T14:29:38.553Z,10.52
2023-05-23T14:32:05.699Z,11.38
2023-05-23T14:34:32.497Z,10.85
2023-05-23T14:36:59.123Z,10.95
2023-05-23T14:39:25.832Z,11.00
2023-05-23T14:41:52.542Z,11.05
2023-05-23T14:44:19.589Z,10.85
2023-05-23T14:46:49.533Z,10.52
2023-05-23T14:49:17.265Z,10.65
2023-05-23T14:51:50.275Z,10.45
2023-05-23T14:54:18.008Z,11.45
2023-05-23T14:56:44.806Z,11.00
2023-05-23T14:59:11.545Z,9.45
2023-05-23T15:01:40.125Z,10.90
2023-05-23T15:04:09.372Z,10.85
2023-05-23T15:06:38.926Z,10.85
2023-05-23T15:09:06.048Z,9.82
2023-05-23T15:11:34.759Z,11.23
2023-05-23T15:14:01.471Z,11.20
2023-05-23T15:16:32.517Z,11.35
2023-05-23T15:18:59.788Z,10.50
2023-05-23T15:21:26.728Z,9.82
2023-05-23T15:23:53.608Z,11.07
2023-05-23T15:26:20.381Z,10.18
2023-05-23T15:28:47.479Z,9.55
2023-05-23T15:31:14.132Z,10.93
2023-05-23T15:33:41.001Z,10.45
2023-05-23T15:36:08.069Z,9.68
2023-05-23T15:38:34.763Z,11.18
2023-05-23T15:41:02.316Z,10.13
2023-05-23T15:43:28.933Z,10.20
2023-05-23T15:45:55.833Z,9.85
2023-05-23T15:48:22.515Z,11.23
2023-05-23T15:50:49.252Z,9.85
2023-05-23T15:53:15.948Z,10.07
2023-05-23T15:55:43.107Z,9.82
2023-05-23T15:58:10.804Z,9.63
2023-05-23T16:00:37.548Z,10.10
2023-05-23T16:03:04.423Z,10.18
2023-05-23T16:05:32.258Z,9.07
2023-05-23T16:07:59.071Z,8.50
2023-05-23T16:10:26.180Z,8.88
2023-05-23T16:12:52.840Z,8.75
2023-05-23T16:15:19.612Z,8.32
2023-05-23T16:17:46.359Z,8.38
2023-05-23T16:20:13.074Z,7.45
2023-05-23T16:22:40.563Z,8.70
2023-05-23T16:25:09.115Z,8.27
2023-05-23T16:27:35.831Z,8.15
2023-05-23T16:30:02.633Z,8.43
2023-05-23T16:32:29.316Z,7.30
2023-05-23T16:34:56.313Z,8.15
2023-05-23T16:37:23.382Z,8.52
2023-05-23T16:39:50.114Z,7.05
2023-05-23T16:42:17.661Z,7.97
2023-05-23T16:44:45.294Z,7.47
2023-05-23T16:47:11.982Z,7.63
2023-05-23T16:49:38.746Z,7.95
2023-05-23T16:52:05.766Z,6.32
2023-05-23T16:54:32.526Z,6.05
2023-05-23T16:57:01.821Z,6.47
2023-05-23T16:59:29.727Z,5.22
2023-05-23T17:01:56.871Z,5.10
2023-05-23T17:04:23.939Z,5.18
2023-05-23T17:06:50.901Z,6.80
2023-05-23T17:09:18.364Z,4.93
2023-05-23T17:11:45.341Z,4.72
2023-05-23T17:14:12.715Z,5.03
2023-05-23T17:16:39.406Z,5.32
2023-05-23T17:19:06.354Z,5.38
2023-05-23T17:21:33.485Z,4.43
2023-05-23T17:24:00.305Z,4.70
2023-05-23T17:26:27.288Z,5.22
2023-05-23T17:28:54.040Z,5.43
2023-05-23T17:31:21.388Z,5.43
2023-05-23T17:33:48.094Z,4.05
2023-05-23T17:36:14.713Z,4.82
2023-05-23T17:38:41.891Z,4.10
2023-05-23T17:41:08.594Z,5.20
2023-05-23T17:43:35.310Z,7.00
2023-05-23T17:46:01.968Z,5.97
2023-05-23T17:48:45.727Z,5.68
2023-05-23T17:51:13.582Z,6.03
2023-05-23T17:53:41.809Z,5.57
2023-05-23T17:56:09.211Z,5.45
2023-05-23T17:58:37.573Z,7.03
2023-05-23T18:01:04.952Z,5.80
2023-05-23T18:03:32.155Z,4.75
2023-05-23T18:05:58.864Z,6.50
2023-05-23T18:08:25.585Z,5.40
2023-05-23T18:10:52.507Z,5.10
2023-05-23T18:13:19.418Z,5.00
2023-05-23T18:15:46.084Z,5.47
2023-05-23T18:18:13.027Z,5.00
2023-05-23T18:20:40.187Z,5.60
2023-05-23T18:23:07.434Z,5.63
2023-05-23T18:25:34.294Z,6.07
2023-05-23T18:28:01.539Z,5.78
2023-05-23T18:30:28.320Z,4.90
2023-05-23T18:32:55.639Z,4.90
2023-05-23T18:35:22.438Z,5.13
2023-05-23T18:37:49.129Z,5.25
2023-05-23T18:40:15.995Z,4.72
2023-05-23T18:42:42.650Z,4.47
2023-05-23T18:45:10.023Z,4.28
2023-05-23T18:47:36.714Z,4.25
2023-05-23T18:50:03.622Z,4.80
2023-05-23T18:52:33.381Z,4.80
2023-05-23T18:55:00.088Z,4.78
2023-05-23T18:57:26.823Z,5.40
2023-05-23T18:59:53.450Z,4.97
2023-05-23T19:02:20.363Z,4.82
2023-05-23T19:04:47.611Z,4.63
2023-05-23T19:07:14.357Z,5.00
2023-05-23T19:09:40.995Z,5.63
2023-05-23T19:12:07.766Z,4.82
2023-05-23T19:14:34.449Z,4.95
2023-05-23T19:17:05.553Z,5.40
2023-05-23T19:19:34.177Z,5.00
2023-05-23T19:22:04.171Z,4.95
2023-05-23T19:24:30.913Z,5.55
2023-05-23T19:26:57.561Z,5.30
2023-05-23T19:29:24.214Z,4.75
2023-05-23T19:31:51.031Z,4.25
2023-05-23T19:34:18.093Z,5.70
2023-05-23T19:36:44.795Z,4.82
2023-05-23T19:39:12.486Z,5.47
2023-05-23T19:41:40.271Z,5.63
2023-05-23T19:44:07.044Z,5.65
2023-05-23T19:46:33.721Z,5.32
2023-05-23T19:49:00.857Z,3.22
2023-05-23T19:51:27.526Z,4.70
2023-05-23T19:53:54.647Z,3.72
2023-05-23T19:56:22.810Z,3.63
2023-05-23T19:58:49.503Z,3.10
2023-05-23T20:01:16.337Z,3.47
2023-05-23T20:03:43.448Z,3.28
2023-05-23T20:06:10.346Z,3.50
2023-05-23T20:08:37.066Z,3.40
2023-05-23T20:11:03.730Z,3.85
2023-05-23T20:13:30.418Z,3.80
2023-05-23T20:15:57.169Z,4.95
2023-05-23T20:18:24.020Z,3.75
2023-05-23T20:20:50.792Z,3.95
2023-05-23T20:23:17.433Z,3.65
2023-05-23T20:25:44.186Z,4.13
2023-05-23T20:28:11.016Z,3.85
2023-05-23T20:30:37.660Z,4.18
2023-05-23T20:33:04.528Z,4.20
2023-05-23T20:35:31.277Z,4.03
2023-05-23T20:37:58.432Z,3.90
2023-05-23T20:40:25.621Z,3.88
2023-05-23T20:42:52.254Z,4.25
2023-05-23T20:45:19.096Z,3.97
2023-05-23T20:47:46.288Z,3.33
2023-05-23T20:50:13.000Z,4.18
2023-05-23T20:52:41.317Z,4.45
2023-05-23T20:55:08.776Z,4.25
2023-05-23T20:57:38.530Z,4.28
2023-05-23T21:00:10.911Z,3.97
2023-05-23T21:02:38.330Z,4.70
2023-05-23T21:05:06.387Z,3.70
2023-05-23T21:07:33.001Z,3.78
2023-05-23T21:09:59.675Z,3.83
2023-05-23T21:12:26.589Z,3.88
2023-05-23T21:15:01.586Z,4.10
2023-05-23T21:17:35.180Z,4.03
2023-05-23T21:20:02.235Z,4.45
2023-05-23T21:22:31.731Z,4.03
2023-05-23T21:24:58.442Z,4.18
2023-05-23T21:27:25.154Z,4.72
2023-05-23T21:29:52.000Z,6.60
2023-05-23T21:32:19.075Z,5.00
2023-05-23T21:34:45.826Z,4.07
2023-05-23T21:37:12.499Z,4.72
2023-05-23T21:39:50.762Z,5.05
2023-05-23T21:42:19.171Z,3.45
2023-05-23T21:44:46.950Z,4.35
2023-05-23T21:47:13.627Z,4.28
2023-05-23T21:49:40.711Z,4.47
2023-05-23T21:52:07.390Z,4.55
2023-05-23T21:54:34.132Z,6.75
2023-05-23T21:57:00.946Z,4.82
2023-05-23T21:59:27.573Z,4.55
2023-05-23T22:01:54.301Z,4.82
2023-05-23T22:04:21.182Z,4.13
2023-05-23T22:06:47.996Z,5.00
2023-05-23T22:09:15.279Z,4.88
2023-05-23T22:11:42.359Z,4.20
2023-05-23T22:14:09.102Z,4.15
2023-05-23T22:16:42.812Z,4.05
2023-05-23T22:19:10.359Z,4.95
2023-05-23T22:21:37.403Z,5.35
2023-05-23T22:24:04.432Z,4.40
2023-05-23T22:26:31.102Z,4.20
2023-05-23T22:28:57.948Z,4.63
2023-05-23T22:31:24.882Z,5.22
2023-05-23T22:33:51.687Z,4.95
2023-05-23T22:36:18.391Z,6.07
2023-05-23T22:38:45.250Z,5.47
2023-05-23T22:41:12.082Z,5.30
2023-05-23T22:43:38.944Z,4.90
2023-05-23T22:46:05.949Z,4.95
2023-05-23T22:48:34.249Z,4.28
2023-05-23T22:51:01.939Z,5.40
2023-05-23T22:53:29.278Z,5.07
2023-05-23T22:55:55.989Z,6.35
2023-05-23T22:58:22.716Z,5.85
2023-05-23T23:00:49.435Z,5.22
2023-05-23T23:03:16.422Z,4.55
2023-05-23T23:05:44.173Z,5.15
2023-05-23T23:08:10.880Z,4.63
2023-05-23T23:10:37.542Z,6.10
2023-05-23T23:13:04.229Z,5.78
2023-05-23T23:15:33.636Z,4.50
2023-05-23T23:18:00.417Z,4.95
2023-05-23T23:20:27.089Z,5.13
2023-05-23T23:22:53.894Z,4.22
2023-05-23T23:25:20.683Z,5.32
2023-05-23T23:27:47.321Z,4.80
2023-05-23T23:30:14.064Z,4.30
2023-05-23T23:32:40.913Z,5.40
2023-05-23T23:35:07.809Z,4.97
2023-05-23T23:37:34.492Z,5.28
2023-05-23T23:40:01.136Z,4.32
2023-05-23T23:42:27.777Z,4.68
2023-05-23T23:44:54.550Z,4.72
2023-05-23T23:47:21.226Z,4.22
2023-05-23T23:49:47.881Z,4.10
2023-05-23T23:52:14.898Z,4.25
2023-05-23T23:54:41.683Z,3.88
2023-05-23T23:57:13.529Z,4.25
2023-05-23T23:59:41.435Z,4.03
